sensor_id;sensor_type;location;lat;lon;timestamp;temperature;humidity
9939;DHT22;5008;50.656;7.188;2023-01-25T05:00:46;2.90;99.90
9939;DHT22;5008;50.656;7.188;2023-01-25T05:03:13;2.80;99.90
9939;DHT22;5008;50.656;7.188;2023-01-25T05:05:44;2.80;99.90
9939;DHT22;5008;50.656;7.188;2023-01-25T05:08:11;2.80;99.90
9939;DHT22;5008;50.656;7.188;2023-01-25T05:10:38;2.80;99.90
9939;DHT22;5008;50.656;7.188;2023-01-25T05:13:05;2.90;99.90
9939;DHT22;5008;50.656;7.188;2023-01-25T05:15:31;2.90;99.90
9939;DHT22;5008;50.656;7.188;2023-01-25T05:17:59;2.90;99.90
9939;DHT22;5008;50.656;7.188;2023-01-25T05:20:26;2.90;99.90
9939;DHT22;5008;50.656;7.188;2023-01-25T05:22:53;2.90;99.90
9939;DHT22;5008;50.656;7.188;2023-01-25T05:25:20;2.80;99.90
9939;DHT22;5008;50.656;7.188;2023-01-25T05:28:05;2.80;99.90
9939;DHT22;5008;50.656;7.188;2023-01-25T05:30:32;2.80;99.90
9939;DHT22;5008;50.656;7.188;2023-01-25T05:33:00;2.80;99.90
9939;DHT22;5008;50.656;7.188;2023-01-25T05:35:27;2.80;99.90
9939;DHT22;5008;50.656;7.188;2023-01-25T05:37:55;2.80;99.90
9939;DHT22;5008;50.656;7.188;2023-01-25T05:40:22;2.80;99.90
9939;DHT22;5008;50.656;7.188;2023-01-25T05:42:53;2.80;99.90
9939;DHT22;5008;50.656;7.188;2023-01-25T05:45:23;2.80;99.90
9939;DHT22;5008;50.656;7.188;2023-01-25T05:47:53;2.80;99.90
9939;DHT22;5008;50.656;7.188;2023-01-25T05:50:22;2.90;99.90
9939;DHT22;5008;50.656;7.188;2023-01-25T05:52:50;2.90;99.90
9939;DHT22;5008;50.656;7.188;2023-01-25T05:55:17;2.90;99.90
9939;DHT22;5008;50.656;7.188;2023-01-25T05:57:44;2.90;99.90
9939;DHT22;5008;50.656;7.188;2023-01-25T06:00:11;2.90;99.90
9939;DHT22;5008;50.656;7.188;2023-01-25T06:02:38;2.90;99.90
9939;DHT22;5008;50.656;7.188;2023-01-25T06:05:06;2.80;99.90
9939;DHT22;5008;50.656;7.188;2023-01-25T06:07:34;2.80;99.90
9939;DHT22;5008;50.656;7.188;2023-01-25T06:10:02;2.70;99.90
9939;DHT22;5008;50.656;7.188;2023-01-25T06:12:29;2.80;99.90
9939;DHT22;5008;50.656;7.188;2023-01-25T06:14:56;2.80;99.90
9939;DHT22;5008;50.656;7.188;2023-01-25T06:17:22;2.70;99.90
9939;DHT22;5008;50.656;7.188;2023-01-25T06:19:49;2.70;99.90
9939;DHT22;5008;50.656;7.188;2023-01-25T06:22:16;2.80;99.90
9939;DHT22;5008;50.656;7.188;2023-01-25T06:24:44;2.70;99.90
9939;DHT22;5008;50.656;7.188;2023-01-25T06:27:11;2.70;99.90
9939;DHT22;5008;50.656;7.188;2023-01-25T06:29:37;2.80;99.90
9939;DHT22;5008;50.656;7.188;2023-01-25T06:32:04;2.70;99.90
9939;DHT22;5008;50.656;7.188;2023-01-25T06:34:31;2.90;99.90
9939;DHT22;5008;50.656;7.188;2023-01-25T06:36:58;2.80;99.90
9939;DHT22;5008;50.656;7.188;2023-01-25T06:39:24;2.70;99.90
9939;DHT22;5008;50.656;7.188;2023-01-25T06:41:52;2.60;99.90
9939;DHT22;5008;50.656;7.188;2023-01-25T06:44:20;2.70;99.90
9939;DHT22;5008;50.656;7.188;2023-01-25T06:46:47;2.70;99.90
9939;DHT22;5008;50.656;7.188;2023-01-25T06:49:14;2.70;99.90
9939;DHT22;5008;50.656;7.188;2023-01-25T06:51:40;2.80;99.90
9939;DHT22;5008;50.656;7.188;2023-01-25T06:54:07;2.80;99.90
9939;DHT22;5008;50.656;7.188;2023-01-25T06:56:34;2.80;99.90
9939;DHT22;5008;50.656;7.188;2023-01-25T06:59:02;2.80;99.90
9939;DHT22;5008;50.656;7.188;2023-01-25T07:01:29;2.80;99.90
9939;DHT22;5008;50.656;7.188;2023-01-25T07:03:56;2.80;99.90
9939;DHT22;5008;50.656;7.188;2023-01-25T07:06:24;2.80;99.90
9939;DHT22;5008;50.656;7.188;2023-01-25T07:08:51;2.80;99.90
9939;DHT22;5008;50.656;7.188;2023-01-25T07:11:18;2.80;99.90
9939;DHT22;5008;50.656;7.188;2023-01-25T07:13:46;2.80;99.90
9939;DHT22;5008;50.656;7.188;2023-01-25T07:16:16;2.70;99.90
9939;DHT22;5008;50.656;7.188;2023-01-25T07:18:43;2.70;99.90
9939;DHT22;5008;50.656;7.188;2023-01-25T07:21:11;2.70;99.90
9939;DHT22;5008;50.656;7.188;2023-01-25T07:23:39;2.70;99.90
9939;DHT22;5008;50.656;7.188;2023-01-25T07:26:13;2.70;99.90
9939;DHT22;5008;50.656;7.188;2023-01-25T07:28:40;2.70;99.90
9939;DHT22;5008;50.656;7.188;2023-01-25T07:31:07;2.70;99.90
9939;DHT22;5008;50.656;7.188;2023-01-25T07:33:35;2.70;99.90
9939;DHT22;5008;50.656;7.188;2023-01-25T07:36:04;2.70;99.90
9939;DHT22;5008;50.656;7.188;2023-01-25T07:38:31;2.70;99.90
9939;DHT22;5008;50.656;7.188;2023-01-25T07:40:58;2.80;99.90
9939;DHT22;5008;50.656;7.188;2023-01-25T07:43:25;2.90;99.90
9939;DHT22;5008;50.656;7.188;2023-01-25T07:45:52;2.90;99.90
9939;DHT22;5008;50.656;7.188;2023-01-25T07:48:20;2.90;99.90
9939;DHT22;5008;50.656;7.188;2023-01-25T07:50:48;2.90;99.90
9939;DHT22;5008;50.656;7.188;2023-01-25T07:53:34;3.00;99.90
9939;DHT22;5008;50.656;7.188;2023-01-25T07:56:01;2.90;99.90
9939;DHT22;5008;50.656;7.188;2023-01-25T07:58:28;2.90;99.90
9939;DHT22;5008;50.656;7.188;2023-01-25T08:00:55;2.80;99.90
9939;DHT22;5008;50.656;7.188;2023-01-25T08:03:23;2.80;99.90
9939;DHT22;5008;50.656;7.188;2023-01-25T08:05:51;2.80;99.90
9939;DHT22;5008;50.656;7.188;2023-01-25T08:08:17;2.80;99.90
9939;DHT22;5008;50.656;7.188;2023-01-25T08:10:44;2.80;99.90
9939;DHT22;5008;50.656;7.188;2023-01-25T08:13:11;2.80;99.90
9939;DHT22;5008;50.656;7.188;2023-01-25T08:15:38;2.80;99.90
9939;DHT22;5008;50.656;7.188;2023-01-25T08:18:05;2.90;99.90
9939;DHT22;5008;50.656;7.188;2023-01-25T08:20:31;2.80;99.90
9939;DHT22;5008;50.656;7.188;2023-01-25T08:22:59;2.80;99.90
9939;DHT22;5008;50.656;7.188;2023-01-25T08:25:26;2.80;99.90
9939;DHT22;5008;50.656;7.188;2023-01-25T08:27:53;2.90;99.90
9939;DHT22;5008;50.656;7.188;2023-01-25T08:30:20;2.80;99.90
9939;DHT22;5008;50.656;7.188;2023-01-25T08:32:46;2.80;99.90
9939;DHT22;5008;50.656;7.188;2023-01-25T08:35:13;2.80;99.90
9939;DHT22;5008;50.656;7.188;2023-01-25T08:37:40;2.70;99.90
9939;DHT22;5008;50.656;7.188;2023-01-25T08:40:10;2.70;99.90
9939;DHT22;5008;50.656;7.188;2023-01-25T08:42:38;2.80;99.90
9939;DHT22;5008;50.656;7.188;2023-01-25T08:45:08;2.80;99.90
9939;DHT22;5008;50.656;7.188;2023-01-25T08:47:35;2.80;99.90
9939;DHT22;5008;50.656;7.188;2023-01-25T08:50:02;2.90;99.90
9939;DHT22;5008;50.656;7.188;2023-01-25T08:52:28;2.90;99.90
9939;DHT22;5008;50.656;7.188;2023-01-25T08:54:55;2.90;99.90
9939;DHT22;5008;50.656;7.188;2023-01-25T08:57:23;2.90;99.90
9939;DHT22;5008;50.656;7.188;2023-01-25T08:59:50;3.00;99.90
9939;DHT22;5008;50.656;7.188;2023-01-25T09:02:17;3.00;99.90
9939;DHT22;5008;50.656;7.188;2023-01-25T09:04:45;2.90;99.90
9939;DHT22;5008;50.656;7.188;2023-01-25T09:07:12;3.00;99.90
9939;DHT22;5008;50.656;7.188;2023-01-25T09:09:39;3.00;99.90
9939;DHT22;5008;50.656;7.188;2023-01-25T09:12:08;3.60;99.90
9939;DHT22;5008;50.656;7.188;2023-01-25T09:14:36;3.50;99.90
9939;DHT22;5008;50.656;7.188;2023-01-25T09:17:04;3.30;99.90
9939;DHT22;5008;50.656;7.188;2023-01-25T09:19:31;3.20;99.90
9939;DHT22;5008;50.656;7.188;2023-01-25T09:21:58;3.10;99.90
9939;DHT22;5008;50.656;7.188;2023-01-25T09:24:25;3.10;99.90
9939;DHT22;5008;50.656;7.188;2023-01-25T09:26:51;3.10;99.90
9939;DHT22;5008;50.656;7.188;2023-01-25T09:29:18;3.00;99.90
9939;DHT22;5008;50.656;7.188;2023-01-25T09:31:46;3.10;99.90
9939;DHT22;5008;50.656;7.188;2023-01-25T09:34:14;3.10;99.90
9939;DHT22;5008;50.656;7.188;2023-01-25T09:36:41;3.10;99.90
9939;DHT22;5008;50.656;7.188;2023-01-25T09:39:09;3.10;99.90
9939;DHT22;5008;50.656;7.188;2023-01-25T09:42:03;3.00;99.90
9939;DHT22;5008;50.656;7.188;2023-01-25T09:44:41;3.10;99.90
9939;DHT22;5008;50.656;7.188;2023-01-25T09:47:20;3.10;99.90
9939;DHT22;5008;50.656;7.188;2023-01-25T09:50:04;3.10;99.90
9939;DHT22;5008;50.656;7.188;2023-01-25T09:52:56;3.00;99.90
9939;DHT22;5008;50.656;7.188;2023-01-25T09:55:28;2.90;99.90
9939;DHT22;5008;50.656;7.188;2023-01-25T09:57:57;2.90;99.90
9939;DHT22;5008;50.656;7.188;2023-01-25T10:00:30;2.90;99.90
9939;DHT22;5008;50.656;7.188;2023-01-25T10:03:02;3.00;99.90
9939;DHT22;5008;50.656;7.188;2023-01-25T10:05:33;3.00;99.90
9939;DHT22;5008;50.656;7.188;2023-01-25T10:08:05;3.00;99.90
9939;DHT22;5008;50.656;7.188;2023-01-25T10:10:39;3.10;99.90
9939;DHT22;5008;50.656;7.188;2023-01-25T10:13:09;3.00;99.90
9939;DHT22;5008;50.656;7.188;2023-01-25T10:15:39;3.00;99.90
9939;DHT22;5008;50.656;7.188;2023-01-25T10:18:18;3.10;99.90
9939;DHT22;5008;50.656;7.188;2023-01-25T10:20:50;3.10;99.90
9939;DHT22;5008;50.656;7.188;2023-01-25T10:23:44;3.20;99.90
9939;DHT22;5008;50.656;7.188;2023-01-25T10:26:22;3.10;99.90
9939;DHT22;5008;50.656;7.188;2023-01-25T10:28:56;3.00;99.90
9939;DHT22;5008;50.656;7.188;2023-01-25T10:31:31;2.90;99.90
9939;DHT22;5008;50.656;7.188;2023-01-25T10:34:01;2.90;99.90
9939;DHT22;5008;50.656;7.188;2023-01-25T10:36:38;2.90;99.90
9939;DHT22;5008;50.656;7.188;2023-01-25T10:39:05;2.80;99.90
9939;DHT22;5008;50.656;7.188;2023-01-25T10:41:37;2.90;99.90
9939;DHT22;5008;50.656;7.188;2023-01-25T10:44:07;2.90;99.90
9939;DHT22;5008;50.656;7.188;2023-01-25T10:46:53;2.90;99.90
9939;DHT22;5008;50.656;7.188;2023-01-25T10:49:24;3.00;99.90
9939;DHT22;5008;50.656;7.188;2023-01-25T10:51:53;2.80;99.90
9939;DHT22;5008;50.656;7.188;2023-01-25T10:54:21;3.00;99.90
9939;DHT22;5008;50.656;7.188;2023-01-25T10:56:49;2.90;99.90
9939;DHT22;5008;50.656;7.188;2023-01-25T10:59:27;2.70;99.90
9939;DHT22;5008;50.656;7.188;2023-01-25T11:01:54;2.80;99.90
9939;DHT22;5008;50.656;7.188;2023-01-25T11:04:33;2.80;99.90
9939;DHT22;5008;50.656;7.188;2023-01-25T11:07:01;2.90;99.90
9939;DHT22;5008;50.656;7.188;2023-01-25T11:09:35;3.00;99.90
9939;DHT22;5008;50.656;7.188;2023-01-25T11:12:03;3.10;99.90
9939;DHT22;5008;50.656;7.188;2023-01-25T11:14:32;3.20;99.90
9939;DHT22;5008;50.656;7.188;2023-01-25T11:17:03;3.00;99.90
9939;DHT22;5008;50.656;7.188;2023-01-25T11:19:33;2.90;99.90
9939;DHT22;5008;50.656;7.188;2023-01-25T11:22:03;2.90;99.90
9939;DHT22;5008;50.656;7.188;2023-01-25T11:24:32;3.00;99.90
9939;DHT22;5008;50.656;7.188;2023-01-25T11:27:16;3.00;99.90
9939;DHT22;5008;50.656;7.188;2023-01-25T11:29:43;3.00;99.90
9939;DHT22;5008;50.656;7.188;2023-01-25T11:32:21;3.00;99.90
9939;DHT22;5008;50.656;7.188;2023-01-25T11:34:51;3.50;99.90
9939;DHT22;5008;50.656;7.188;2023-01-25T11:37:39;3.50;99.90
9939;DHT22;5008;50.656;7.188;2023-01-25T11:40:16;3.20;99.90
9939;DHT22;5008;50.656;7.188;2023-01-25T11:43:00;3.10;99.90
9939;DHT22;5008;50.656;7.188;2023-01-25T11:48:46;3.00;99.90
9939;DHT22;5008;50.656;7.188;2023-01-25T11:51:23;3.10;99.90
9939;DHT22;5008;50.656;7.188;2023-01-25T11:56:55;2.90;99.90
9939;DHT22;5008;50.656;7.188;2023-01-25T11:59:41;2.80;99.90
9939;DHT22;5008;50.656;7.188;2023-01-25T12:05:31;2.90;99.90
9939;DHT22;5008;50.656;7.188;2023-01-25T12:08:14;2.90;99.90
9939;DHT22;5008;50.656;7.188;2023-01-25T12:10:49;2.80;99.90
9939;DHT22;5008;50.656;7.188;2023-01-25T12:13:26;2.80;99.90
9939;DHT22;5008;50.656;7.188;2023-01-25T12:16:08;2.70;99.90
9939;DHT22;5008;50.656;7.188;2023-01-25T12:18:54;2.80;99.90
9939;DHT22;5008;50.656;7.188;2023-01-25T12:21:32;2.90;99.90
9939;DHT22;5008;50.656;7.188;2023-01-25T12:24:14;2.90;99.90
9939;DHT22;5008;50.656;7.188;2023-01-25T12:26:48;2.80;99.90
9939;DHT22;5008;50.656;7.188;2023-01-25T12:29:26;2.90;99.90
9939;DHT22;5008;50.656;7.188;2023-01-25T12:32:00;2.90;99.90
9939;DHT22;5008;50.656;7.188;2023-01-25T12:34:33;2.90;99.90
9939;DHT22;5008;50.656;7.188;2023-01-25T12:37:08;2.90;99.90
9939;DHT22;5008;50.656;7.188;2023-01-25T12:39:45;2.90;99.90
9939;DHT22;5008;50.656;7.188;2023-01-25T12:42:16;3.00;99.90
9939;DHT22;5008;50.656;7.188;2023-01-25T12:44:48;3.00;99.90
9939;DHT22;5008;50.656;7.188;2023-01-25T12:47:21;3.10;99.90
9939;DHT22;5008;50.656;7.188;2023-01-25T12:49:54;3.00;99.90
9939;DHT22;5008;50.656;7.188;2023-01-25T12:52:28;3.00;99.90
9939;DHT22;5008;50.656;7.188;2023-01-25T12:55:00;3.00;99.90
9939;DHT22;5008;50.656;7.188;2023-01-25T12:57:32;3.00;99.90
9939;DHT22;5008;50.656;7.188;2023-01-25T13:00:07;3.00;99.90
9939;DHT22;5008;50.656;7.188;2023-01-25T13:03:00;3.00;99.90
9939;DHT22;5008;50.656;7.188;2023-01-25T13:05:31;3.00;99.90
9939;DHT22;5008;50.656;7.188;2023-01-25T13:08:13;2.90;99.90
9939;DHT22;5008;50.656;7.188;2023-01-25T13:10:46;3.00;99.90
9939;DHT22;5008;50.656;7.188;2023-01-25T13:13:22;3.00;99.90
9939;DHT22;5008;50.656;7.188;2023-01-25T13:15:49;2.90;99.90
9939;DHT22;5008;50.656;7.188;2023-01-25T13:18:39;2.90;99.90
9939;DHT22;5008;50.656;7.188;2023-01-25T13:21:11;2.90;99.90
9939;DHT22;5008;50.656;7.188;2023-01-25T13:24:16;2.80;99.90
9939;DHT22;5008;50.656;7.188;2023-01-25T13:27:02;2.90;99.90
9939;DHT22;5008;50.656;7.188;2023-01-25T13:29:54;2.90;99.90
9939;DHT22;5008;50.656;7.188;2023-01-25T13:32:53;2.90;99.90
9939;DHT22;5008;50.656;7.188;2023-01-25T13:35:26;3.00;99.90
9939;DHT22;5008;50.656;7.188;2023-01-25T13:37:57;3.00;99.90
9939;DHT22;5008;50.656;7.188;2023-01-25T13:40:31;3.00;99.90
9939;DHT22;5008;50.656;7.188;2023-01-25T13:43:00;2.90;99.90
9939;DHT22;5008;50.656;7.188;2023-01-25T13:45:29;2.90;99.90
9939;DHT22;5008;50.656;7.188;2023-01-25T13:48:04;3.00;99.90
9939;DHT22;5008;50.656;7.188;2023-01-25T13:50:52;2.90;99.90
9939;DHT22;5008;50.656;7.188;2023-01-25T13:53:23;2.80;99.90
9939;DHT22;5008;50.656;7.188;2023-01-25T13:55:54;2.70;99.90
9939;DHT22;5008;50.656;7.188;2023-01-25T13:58:25;2.70;99.90
9939;DHT22;5008;50.656;7.188;2023-01-25T14:00:54;2.70;99.90
9939;DHT22;5008;50.656;7.188;2023-01-25T14:03:25;2.70;99.90
9939;DHT22;5008;50.656;7.188;2023-01-25T14:05:54;2.80;99.90
9939;DHT22;5008;50.656;7.188;2023-01-25T14:08:22;2.80;99.90
9939;DHT22;5008;50.656;7.188;2023-01-25T14:10:51;2.80;99.90
9939;DHT22;5008;50.656;7.188;2023-01-25T14:13:19;2.80;99.90
9939;DHT22;5008;50.656;7.188;2023-01-25T14:15:54;2.80;99.90
9939;DHT22;5008;50.656;7.188;2023-01-25T14:18:25;2.80;99.90
9939;DHT22;5008;50.656;7.188;2023-01-25T14:21:09;2.70;99.90
9939;DHT22;5008;50.656;7.188;2023-01-25T14:23:36;2.80;99.90
9939;DHT22;5008;50.656;7.188;2023-01-25T14:26:16;2.80;99.90
9939;DHT22;5008;50.656;7.188;2023-01-25T14:28:45;2.70;99.90
9939;DHT22;5008;50.656;7.188;2023-01-25T14:31:19;2.70;99.90
9939;DHT22;5008;50.656;7.188;2023-01-25T14:33:46;2.70;99.90
9939;DHT22;5008;50.656;7.188;2023-01-25T14:36:19;2.70;99.90
9939;DHT22;5008;50.656;7.188;2023-01-25T14:38:46;2.70;99.90
9939;DHT22;5008;50.656;7.188;2023-01-25T14:41:16;2.70;99.90
9939;DHT22;5008;50.656;7.188;2023-01-25T14:43:45;2.60;99.90
9939;DHT22;5008;50.656;7.188;2023-01-25T14:46:20;2.60;99.90
9939;DHT22;5008;50.656;7.188;2023-01-25T14:48:47;2.60;99.90
9939;DHT22;5008;50.656;7.188;2023-01-25T14:51:17;2.60;99.90
9939;DHT22;5008;50.656;7.188;2023-01-25T14:53:50;2.70;99.90
9939;DHT22;5008;50.656;7.188;2023-01-25T14:56:33;2.70;99.90
9939;DHT22;5008;50.656;7.188;2023-01-25T14:59:02;2.60;99.90
9939;DHT22;5008;50.656;7.188;2023-01-25T15:01:37;2.60;99.90
9939;DHT22;5008;50.656;7.188;2023-01-25T15:04:09;2.60;99.90
9939;DHT22;5008;50.656;7.188;2023-01-25T15:06:47;2.60;99.90
9939;DHT22;5008;50.656;7.188;2023-01-25T15:09:37;2.60;99.90
9939;DHT22;5008;50.656;7.188;2023-01-25T15:12:25;2.50;99.90
9939;DHT22;5008;50.656;7.188;2023-01-25T15:14:54;2.60;99.90
9939;DHT22;5008;50.656;7.188;2023-01-25T15:17:42;2.60;99.90
9939;DHT22;5008;50.656;7.188;2023-01-25T15:20:29;2.60;99.90
9939;DHT22;5008;50.656;7.188;2023-01-25T15:22:59;2.50;99.90
9939;DHT22;5008;50.656;7.188;2023-01-25T15:25:26;2.50;99.90
9939;DHT22;5008;50.656;7.188;2023-01-25T15:27:54;2.50;99.90
9939;DHT22;5008;50.656;7.188;2023-01-25T15:30:22;2.50;99.90
9939;DHT22;5008;50.656;7.188;2023-01-25T15:32:49;2.50;99.90
9939;DHT22;5008;50.656;7.188;2023-01-25T15:35:17;2.50;99.90
9939;DHT22;5008;50.656;7.188;2023-01-25T15:37:44;2.50;99.90
9939;DHT22;5008;50.656;7.188;2023-01-25T15:40:12;2.50;99.90
9939;DHT22;5008;50.656;7.188;2023-01-25T15:42:39;2.50;99.90
9939;DHT22;5008;50.656;7.188;2023-01-25T15:45:09;2.50;99.90
9939;DHT22;5008;50.656;7.188;2023-01-25T15:47:36;2.50;99.90
9939;DHT22;5008;50.656;7.188;2023-01-25T15:50:05;2.40;99.90
9939;DHT22;5008;50.656;7.188;2023-01-25T15:52:32;2.40;99.90
9939;DHT22;5008;50.656;7.188;2023-01-25T15:54:59;2.40;99.90
9939;DHT22;5008;50.656;7.188;2023-01-25T15:57:28;2.50;99.90
9939;DHT22;5008;50.656;7.188;2023-01-25T15:59:56;2.50;99.90
9939;DHT22;5008;50.656;7.188;2023-01-25T16:02:24;2.40;99.90
9939;DHT22;5008;50.656;7.188;2023-01-25T16:05:09;2.50;99.90
9939;DHT22;5008;50.656;7.188;2023-01-25T16:07:37;2.50;99.90
9939;DHT22;5008;50.656;7.188;2023-01-25T16:10:05;2.40;99.90
9939;DHT22;5008;50.656;7.188;2023-01-25T16:12:32;2.30;99.90
9939;DHT22;5008;50.656;7.188;2023-01-25T16:14:58;2.30;99.90
9939;DHT22;5008;50.656;7.188;2023-01-25T16:17:28;2.30;99.90
9939;DHT22;5008;50.656;7.188;2023-01-25T16:19:54;2.30;99.90
9939;DHT22;5008;50.656;7.188;2023-01-25T16:22:21;2.30;99.90
9939;DHT22;5008;50.656;7.188;2023-01-25T16:24:48;2.30;99.90
9939;DHT22;5008;50.656;7.188;2023-01-25T16:27:16;2.30;99.90
9939;DHT22;5008;50.656;7.188;2023-01-25T16:29:49;2.30;99.90
9939;DHT22;5008;50.656;7.188;2023-01-25T16:32:16;2.30;99.90
9939;DHT22;5008;50.656;7.188;2023-01-25T16:34:44;2.30;99.90
9939;DHT22;5008;50.656;7.188;2023-01-25T16:37:13;2.30;99.90
9939;DHT22;5008;50.656;7.188;2023-01-25T16:39:40;2.30;99.90
9939;DHT22;5008;50.656;7.188;2023-01-25T16:42:08;2.30;99.90
9939;DHT22;5008;50.656;7.188;2023-01-25T16:44:35;2.20;99.90
9939;DHT22;5008;50.656;7.188;2023-01-25T16:47:03;2.10;99.90
9939;DHT22;5008;50.656;7.188;2023-01-25T16:49:30;2.20;99.90
9939;DHT22;5008;50.656;7.188;2023-01-25T16:52:01;2.10;99.90
9939;DHT22;5008;50.656;7.188;2023-01-25T16:54:28;2.20;99.90
9939;DHT22;5008;50.656;7.188;2023-01-25T16:56:55;2.20;99.90
9939;DHT22;5008;50.656;7.188;2023-01-25T16:59:23;2.30;99.90
9939;DHT22;5008;50.656;7.188;2023-01-25T17:01:51;2.30;99.90
9939;DHT22;5008;50.656;7.188;2023-01-25T17:04:18;2.20;99.90
9939;DHT22;5008;50.656;7.188;2023-01-25T17:06:47;2.30;99.90
9939;DHT22;5008;50.656;7.188;2023-01-25T17:09:16;2.20;99.90
9939;DHT22;5008;50.656;7.188;2023-01-25T17:11:44;2.30;99.90
9939;DHT22;5008;50.656;7.188;2023-01-25T17:14:13;2.20;99.90
9939;DHT22;5008;50.656;7.188;2023-01-25T17:16:40;2.20;99.90
9939;DHT22;5008;50.656;7.188;2023-01-25T17:19:11;2.20;99.90
9939;DHT22;5008;50.656;7.188;2023-01-25T17:21:38;2.30;99.90
9939;DHT22;5008;50.656;7.188;2023-01-25T17:24:06;2.30;99.90
9939;DHT22;5008;50.656;7.188;2023-01-25T17:26:35;2.30;99.90
9939;DHT22;5008;50.656;7.188;2023-01-25T17:29:01;2.30;99.90
9939;DHT22;5008;50.656;7.188;2023-01-25T17:31:31;2.30;99.90
9939;DHT22;5008;50.656;7.188;2023-01-25T17:34:00;2.40;99.90
9939;DHT22;5008;50.656;7.188;2023-01-25T17:36:27;2.80;99.90
9939;DHT22;5008;50.656;7.188;2023-01-25T17:38:54;2.60;99.90
9939;DHT22;5008;50.656;7.188;2023-01-25T17:41:20;2.50;99.90
9939;DHT22;5008;50.656;7.188;2023-01-25T17:43:51;2.40;99.90
9939;DHT22;5008;50.656;7.188;2023-01-25T17:46:20;2.40;99.90
9939;DHT22;5008;50.656;7.188;2023-01-25T17:48:50;2.30;99.90
9939;DHT22;5008;50.656;7.188;2023-01-25T17:51:16;2.20;99.90
9939;DHT22;5008;50.656;7.188;2023-01-25T17:53:43;2.30;99.90
9939;DHT22;5008;50.656;7.188;2023-01-25T17:56:11;2.30;99.90
9939;DHT22;5008;50.656;7.188;2023-01-25T17:58:39;2.20;99.90
9939;DHT22;5008;50.656;7.188;2023-01-25T18:01:12;2.20;99.90
9939;DHT22;5008;50.656;7.188;2023-01-25T18:03:39;2.10;99.90
9939;DHT22;5008;50.656;7.188;2023-01-25T18:06:06;2.10;99.90
9939;DHT22;5008;50.656;7.188;2023-01-25T18:08:36;2.20;99.90
9939;DHT22;5008;50.656;7.188;2023-01-25T18:11:05;2.20;99.90
9939;DHT22;5008;50.656;7.188;2023-01-25T18:13:33;2.20;99.90
9939;DHT22;5008;50.656;7.188;2023-01-25T18:16:00;2.30;99.90
9939;DHT22;5008;50.656;7.188;2023-01-25T18:18:31;2.30;99.90
9939;DHT22;5008;50.656;7.188;2023-01-25T18:21:02;2.30;99.90
9939;DHT22;5008;50.656;7.188;2023-01-25T18:23:30;2.30;99.90
9939;DHT22;5008;50.656;7.188;2023-01-25T18:25:56;2.20;99.90
9939;DHT22;5008;50.656;7.188;2023-01-25T18:28:24;2.20;99.90
9939;DHT22;5008;50.656;7.188;2023-01-25T18:30:52;2.20;99.90
9939;DHT22;5008;50.656;7.188;2023-01-25T18:33:22;2.10;99.90
9939;DHT22;5008;50.656;7.188;2023-01-25T18:35:50;2.10;99.90
9939;DHT22;5008;50.656;7.188;2023-01-25T18:38:18;2.20;99.90
9939;DHT22;5008;50.656;7.188;2023-01-25T18:40:45;2.80;99.90
9939;DHT22;5008;50.656;7.188;2023-01-25T18:43:11;2.60;99.90
9939;DHT22;5008;50.656;7.188;2023-01-25T18:45:40;2.50;99.90
9939;DHT22;5008;50.656;7.188;2023-01-25T18:48:08;2.50;99.90
9939;DHT22;5008;50.656;7.188;2023-01-25T18:50:39;2.50;99.90
9939;DHT22;5008;50.656;7.188;2023-01-25T18:53:08;2.40;99.90
9939;DHT22;5008;50.656;7.188;2023-01-25T18:55:35;2.30;99.90
9939;DHT22;5008;50.656;7.188;2023-01-25T18:58:02;2.40;99.90
9939;DHT22;5008;50.656;7.188;2023-01-25T19:00:29;2.40;99.90
9939;DHT22;5008;50.656;7.188;2023-01-25T19:02:56;2.40;99.90
9939;DHT22;5008;50.656;7.188;2023-01-25T19:05:23;2.20;99.90
9939;DHT22;5008;50.656;7.188;2023-01-25T19:07:50;2.20;99.90
9939;DHT22;5008;50.656;7.188;2023-01-25T19:10:18;2.20;99.90
9939;DHT22;5008;50.656;7.188;2023-01-25T19:12:45;2.20;99.90
9939;DHT22;5008;50.656;7.188;2023-01-25T19:15:12;2.20;99.90
9939;DHT22;5008;50.656;7.188;2023-01-25T19:17:38;2.10;99.90
9939;DHT22;5008;50.656;7.188;2023-01-25T19:20:05;2.10;99.90
9939;DHT22;5008;50.656;7.188;2023-01-25T19:22:32;2.20;99.90
9939;DHT22;5008;50.656;7.188;2023-01-25T19:24:59;2.20;99.90
9939;DHT22;5008;50.656;7.188;2023-01-25T19:27:27;2.20;99.90
9939;DHT22;5008;50.656;7.188;2023-01-25T19:29:54;2.10;99.90
9939;DHT22;5008;50.656;7.188;2023-01-25T19:32:21;2.00;99.90
9939;DHT22;5008;50.656;7.188;2023-01-25T19:34:47;2.00;99.90
9939;DHT22;5008;50.656;7.188;2023-01-25T19:37:14;1.90;99.90
9939;DHT22;5008;50.656;7.188;2023-01-25T19:39:41;2.00;99.90
9939;DHT22;5008;50.656;7.188;2023-01-25T19:42:08;2.00;99.90
9939;DHT22;5008;50.656;7.188;2023-01-25T19:44:36;1.90;99.90
9939;DHT22;5008;50.656;7.188;2023-01-25T19:47:02;2.00;99.90
9939;DHT22;5008;50.656;7.188;2023-01-25T19:49:29;2.10;99.90
9939;DHT22;5008;50.656;7.188;2023-01-25T19:51:56;2.10;99.90
9939;DHT22;5008;50.656;7.188;2023-01-25T19:54:23;1.90;99.90
9939;DHT22;5008;50.656;7.188;2023-01-25T19:56:50;1.90;99.90
9939;DHT22;5008;50.656;7.188;2023-01-25T19:59:19;1.90;99.90
9939;DHT22;5008;50.656;7.188;2023-01-25T20:01:47;1.80;99.90
9939;DHT22;5008;50.656;7.188;2023-01-25T20:04:16;1.90;99.90
9939;DHT22;5008;50.656;7.188;2023-01-25T20:06:46;1.90;99.90
9939;DHT22;5008;50.656;7.188;2023-01-25T20:09:17;1.90;99.90
9939;DHT22;5008;50.656;7.188;2023-01-25T20:11:44;1.90;99.90
9939;DHT22;5008;50.656;7.188;2023-01-25T20:14:12;1.80;99.90
9939;DHT22;5008;50.656;7.188;2023-01-25T20:16:38;1.80;99.90
9939;DHT22;5008;50.656;7.188;2023-01-25T20:19:08;1.80;99.90
9939;DHT22;5008;50.656;7.188;2023-01-25T20:21:35;1.80;99.90
9939;DHT22;5008;50.656;7.188;2023-01-25T20:24:05;1.70;99.90
9939;DHT22;5008;50.656;7.188;2023-01-25T20:26:35;1.70;99.90
9939;DHT22;5008;50.656;7.188;2023-01-25T20:29:04;1.70;99.90
9939;DHT22;5008;50.656;7.188;2023-01-25T20:31:32;1.80;99.90
9939;DHT22;5008;50.656;7.188;2023-01-25T20:34:01;1.80;99.90
9939;DHT22;5008;50.656;7.188;2023-01-25T20:36:31;1.80;99.90
9939;DHT22;5008;50.656;7.188;2023-01-25T20:38:58;1.80;99.90
9939;DHT22;5008;50.656;7.188;2023-01-25T20:41:25;1.80;99.90
9939;DHT22;5008;50.656;7.188;2023-01-25T20:43:53;1.80;99.90
9939;DHT22;5008;50.656;7.188;2023-01-25T20:46:22;1.70;99.90
9939;DHT22;5008;50.656;7.188;2023-01-25T20:48:49;1.70;99.90
9939;DHT22;5008;50.656;7.188;2023-01-25T20:51:17;1.60;99.90
9939;DHT22;5008;50.656;7.188;2023-01-25T20:53:48;1.60;99.90
9939;DHT22;5008;50.656;7.188;2023-01-25T20:56:15;1.70;99.90
9939;DHT22;5008;50.656;7.188;2023-01-25T20:58:42;1.80;99.90
9939;DHT22;5008;50.656;7.188;2023-01-25T21:01:16;1.70;99.90
9939;DHT22;5008;50.656;7.188;2023-01-25T21:03:43;1.70;99.90
9939;DHT22;5008;50.656;7.188;2023-01-25T21:06:10;1.70;99.90
9939;DHT22;5008;50.656;7.188;2023-01-25T21:08:37;1.70;99.90
9939;DHT22;5008;50.656;7.188;2023-01-25T21:11:05;1.70;99.90
9939;DHT22;5008;50.656;7.188;2023-01-25T21:13:33;1.70;99.90
9939;DHT22;5008;50.656;7.188;2023-01-25T21:16:01;1.70;99.90
9939;DHT22;5008;50.656;7.188;2023-01-25T21:18:29;1.70;99.90
9939;DHT22;5008;50.656;7.188;2023-01-25T21:21:03;1.80;99.90
9939;DHT22;5008;50.656;7.188;2023-01-25T21:23:31;1.90;99.90
9939;DHT22;5008;50.656;7.188;2023-01-25T21:25:59;1.80;99.90
9939;DHT22;5008;50.656;7.188;2023-01-25T21:28:27;1.80;99.90
9939;DHT22;5008;50.656;7.188;2023-01-25T21:30:54;1.80;99.90
9939;DHT22;5008;50.656;7.188;2023-01-25T21:33:21;1.70;99.90
9939;DHT22;5008;50.656;7.188;2023-01-25T21:35:48;1.70;99.90
9939;DHT22;5008;50.656;7.188;2023-01-25T21:38:17;1.60;99.90
9939;DHT22;5008;50.656;7.188;2023-01-25T21:40:44;1.70;99.90
9939;DHT22;5008;50.656;7.188;2023-01-25T21:43:11;1.70;99.90
9939;DHT22;5008;50.656;7.188;2023-01-25T21:45:39;1.70;99.90